createdAt,value
2018-04-15T00:01:43.983Z,52.92
2018-04-15T00:04:11.602Z,52.40
2018-04-15T00:06:40.399Z,51.20
2018-04-15T00:09:08.789Z,50.50
2018-04-15T00:11:36.453Z,54.20
2018-04-15T00:14:04.075Z,57.97
2018-04-15T00:16:31.927Z,56.67
2018-04-15T00:18:59.587Z,55.03
2018-04-15T00:21:27.211Z,54.77
2018-04-15T00:23:54.870Z,54.83
2018-04-15T00:26:22.486Z,52.60
2018-04-15T00:28:50.144Z,51.72
2018-04-15T00:31:17.768Z,54.00
2018-04-15T00:33:45.428Z,51.87
2018-04-15T00:36:13.048Z,56.07
2018-04-15T00:38:41.471Z,54.47
2018-04-15T00:41:09.079Z,53.63
2018-04-15T00:43:36.734Z,47.90
2018-04-15T00:46:05.143Z,49.33
2018-04-15T00:48:32.798Z,50.07
2018-04-15T00:51:00.456Z,51.90
2018-04-15T00:53:39.930Z,53.40
2018-04-15T00:56:07.598Z,51.00
2018-04-15T00:58:35.216Z,48.60
2018-04-15T01:01:02.872Z,48.63
2018-04-15T01:03:30.793Z,50.37
2018-04-15T01:05:58.414Z,51.47
2018-04-15T01:08:26.067Z,48.73
2018-04-15T01:10:53.689Z,48.97
2018-04-15T01:13:21.344Z,50.17
2018-04-15T01:15:49.722Z,51.50
2018-04-15T01:18:17.386Z,49.60
2018-04-15T01:20:45.009Z,48.27
2018-04-15T01:23:12.667Z,51.47
2018-04-15T01:25:40.287Z,49.33
2018-04-15T01:28:08.167Z,51.60
2018-04-15T01:30:35.875Z,49.47
2018-04-15T01:33:03.539Z,49.90
2018-04-15T01:35:31.200Z,52.33
2018-04-15T01:37:59.618Z,49.20
2018-04-15T01:40:27.322Z,48.40
2018-04-15T01:42:54.978Z,50.65
2018-04-15T01:45:22.594Z,50.10
2018-04-15T01:47:50.255Z,49.52
2018-04-15T01:50:18.645Z,49.05
2018-04-15T01:52:46.319Z,51.88
2018-04-15T01:55:13.979Z,53.53
2018-04-15T01:57:41.605Z,54.22
2018-04-15T02:00:10.023Z,50.10
2018-04-15T02:02:37.706Z,51.27
2018-04-15T02:05:05.355Z,49.67
2018-04-15T02:07:33.240Z,52.77
2018-04-15T02:10:00.856Z,52.40
2018-04-15T02:12:29.080Z,51.37
2018-04-15T02:14:56.735Z,50.33
2018-04-15T02:17:24.352Z,52.20
2018-04-15T02:19:52.007Z,46.83
2018-04-15T02:22:19.668Z,51.28
2018-04-15T02:24:47.288Z,51.60
2018-04-15T02:27:14.945Z,51.30
2018-04-15T02:29:42.583Z,46.37
2018-04-15T02:32:10.247Z,43.40
2018-04-15T02:34:37.900Z,46.20
2018-04-15T02:37:05.556Z,45.67
2018-04-15T02:39:33.219Z,42.90
2018-04-15T02:42:00.879Z,44.63
2018-04-15T02:44:28.487Z,46.43
2018-04-15T02:46:56.921Z,47.87
2018-04-15T02:49:24.543Z,47.03
2018-04-15T02:51:52.200Z,49.58
2018-04-15T02:54:19.811Z,46.77
2018-04-15T02:56:47.479Z,51.13
2018-04-15T02:59:15.099Z,51.17
2018-04-15T03:01:42.755Z,47.15
2018-04-15T03:04:10.387Z,48.23
2018-04-15T03:06:38.047Z,48.92
2018-04-15T03:09:06.444Z,45.30
2018-04-15T03:11:34.071Z,42.47
2018-04-15T03:14:01.719Z,42.67
2018-04-15T03:16:29.456Z,42.93
2018-04-15T03:18:57.115Z,43.28
2018-04-15T03:21:24.767Z,41.35
2018-04-15T03:23:52.997Z,46.30
2018-04-15T03:26:21.380Z,48.00
2018-04-15T03:28:49.054Z,43.85
2018-04-15T03:31:16.710Z,44.40
2018-04-15T03:33:44.370Z,45.93
2018-04-15T03:36:11.984Z,44.60
2018-04-15T03:38:39.652Z,44.65
2018-04-15T03:41:08.257Z,45.23
2018-04-15T03:43:36.683Z,46.27
2018-04-15T03:46:04.363Z,46.67
2018-04-15T03:48:32.127Z,45.53
2018-04-15T03:50:59.783Z,48.50
2018-04-15T03:53:27.403Z,53.37
2018-04-15T03:55:55.097Z,52.27
2018-04-15T03:58:22.767Z,58.60
2018-04-15T04:00:50.401Z,55.72
2018-04-15T04:03:18.062Z,56.47
2018-04-15T04:05:46.510Z,55.88
2018-04-15T04:08:14.911Z,57.42
2018-04-15T04:10:42.799Z,79.57
2018-04-15T04:13:10.472Z,57.47
2018-04-15T04:15:38.790Z,55.10
2018-04-15T04:31:40.559Z,54.63
2018-04-15T04:34:08.179Z,50.60
2018-04-15T04:36:35.831Z,63.63
2018-04-15T04:39:03.451Z,48.70
2018-04-15T04:41:31.110Z,46.95
2018-04-15T04:43:58.791Z,80.37
2018-04-15T04:46:26.443Z,75.28
2018-04-15T04:48:54.096Z,58.93
2018-04-15T04:51:21.715Z,56.67
2018-04-15T04:53:49.375Z,85.13
2018-04-15T04:56:17.051Z,92.30
2018-04-15T04:58:44.674Z,61.93
2018-04-15T05:01:12.296Z,57.92
2018-04-15T05:03:40.407Z,64.97
2018-04-15T05:06:08.083Z,83.95
2018-04-15T05:08:36.470Z,86.67
2018-04-15T05:11:04.139Z,71.47
2018-04-15T05:13:31.795Z,57.38
2018-04-15T05:15:59.454Z,77.53
2018-04-15T05:18:27.075Z,95.70
2018-04-15T05:20:55.001Z,80.18
2018-04-15T05:23:22.611Z,65.10
2018-04-15T05:25:50.230Z,66.33
2018-04-15T05:28:17.881Z,59.13
2018-04-15T05:30:45.694Z,45.37
2018-04-15T05:33:14.288Z,45.70
2018-04-15T05:35:41.911Z,62.50
2018-04-15T05:38:11.788Z,51.03
2018-04-15T05:40:39.419Z,47.27
2018-04-15T05:43:07.075Z,41.30
2018-04-15T05:45:34.729Z,48.73
2018-04-15T05:48:02.385Z,54.30
2018-04-15T05:50:30.004Z,50.43
2018-04-15T05:52:57.674Z,39.80
2018-04-15T05:55:25.452Z,49.50
2018-04-15T05:57:53.111Z,47.20
2018-04-15T06:00:20.747Z,45.17
2018-04-15T06:02:48.355Z,43.67
2018-04-15T06:05:16.021Z,49.30
2018-04-15T06:07:44.371Z,41.20
2018-04-15T06:10:12.036Z,67.10
2018-04-15T06:12:39.660Z,39.00
2018-04-15T06:15:07.318Z,34.15
2018-04-15T06:17:34.972Z,36.10
2018-04-15T06:20:02.905Z,34.50
2018-04-15T06:22:30.568Z,35.83
2018-04-15T06:24:58.950Z,36.47
2018-04-15T06:27:27.371Z,32.23
2018-04-15T06:29:55.000Z,33.70
2018-04-15T06:32:22.659Z,34.53
2018-04-15T06:34:50.276Z,33.37
2018-04-15T06:37:17.899Z,34.10
2018-04-15T06:39:45.548Z,34.03
2018-04-15T06:42:13.163Z,33.87
2018-04-15T06:44:40.816Z,34.10
2018-04-15T06:47:08.432Z,34.07
2018-04-15T06:49:36.086Z,37.78
2018-04-15T06:52:03.742Z,38.20
2018-04-15T06:54:31.542Z,40.60
2018-04-15T06:56:59.912Z,40.13
2018-04-15T06:59:27.984Z,37.57
2018-04-15T07:01:56.636Z,37.58
2018-04-15T07:04:24.924Z,37.23
2018-04-15T07:06:52.811Z,38.10
2018-04-15T07:09:21.506Z,38.13
2018-04-15T07:11:49.264Z,41.45
2018-04-15T07:14:17.902Z,41.00
2018-04-15T07:16:47.624Z,38.97
2018-04-15T07:19:15.768Z,36.53
2018-04-15T07:21:43.743Z,39.90
2018-04-15T07:24:14.816Z,40.75
2018-04-15T07:26:46.455Z,41.37
2018-04-15T07:29:14.607Z,40.23
2018-04-15T07:31:42.422Z,39.40
2018-04-15T07:34:13.413Z,41.50
2018-04-15T07:36:41.234Z,40.80
2018-04-15T07:39:09.047Z,41.33
2018-04-15T07:41:37.983Z,41.60
2018-04-15T07:44:05.647Z,41.03
2018-04-15T07:46:33.272Z,40.67
2018-04-15T07:49:06.752Z,42.67
2018-04-15T07:51:39.815Z,39.83
2018-04-15T07:54:10.136Z,42.35
2018-04-15T07:56:39.083Z,42.60
2018-04-15T07:59:07.088Z,45.20
2018-04-15T08:01:35.338Z,44.00
2018-04-15T08:04:03.275Z,42.17
2018-04-15T08:06:31.334Z,42.10
2018-04-15T08:09:00.054Z,43.40
2018-04-15T08:11:27.667Z,42.60
2018-04-15T08:13:55.584Z,44.27
2018-04-15T08:16:23.346Z,43.80
2018-04-15T08:18:51.109Z,44.00
2018-04-15T08:21:19.094Z,42.10
2018-04-15T08:23:47.628Z,42.00
2018-04-15T08:26:15.859Z,43.35
2018-04-15T08:28:44.314Z,44.13
2018-04-15T08:31:12.128Z,41.10
2018-04-15T08:33:39.749Z,42.08
2018-04-15T08:36:07.408Z,41.00
2018-04-15T08:38:35.098Z,41.03
2018-04-15T08:41:02.721Z,46.27
2018-04-15T08:43:30.581Z,46.90
2018-04-15T08:45:58.207Z,44.80
2018-04-15T08:48:25.917Z,47.38
2018-04-15T08:50:55.189Z,155.85
2018-04-15T08:53:23.168Z,75.97
2018-04-15T08:55:53.482Z,44.63
2018-04-15T08:58:21.107Z,46.28
2018-04-15T09:00:49.755Z,44.97
2018-04-15T09:06:08.812Z,42.00
2018-04-15T09:08:36.479Z,45.40
2018-04-15T09:11:04.142Z,43.73
2018-04-15T09:13:31.955Z,48.03
2018-04-15T09:16:00.987Z,42.97
2018-04-15T09:18:28.648Z,41.73
2018-04-15T09:20:56.315Z,40.80
2018-04-15T09:23:24.278Z,43.90
2018-04-15T09:25:51.932Z,43.93
2018-04-15T09:28:19.568Z,42.87
2018-04-15T09:30:52.939Z,44.97
2018-04-15T09:33:21.223Z,43.40
2018-04-15T09:35:48.929Z,44.13
2018-04-15T09:38:16.685Z,44.80
2018-04-15T09:40:44.319Z,46.72
2018-04-15T09:43:13.958Z,47.90
2018-04-15T09:45:41.755Z,47.78
2018-04-15T09:48:09.548Z,48.57
2018-04-15T09:50:37.935Z,45.17
2018-04-15T09:53:05.635Z,47.10
2018-04-15T09:55:33.287Z,46.10
2018-04-15T09:58:00.960Z,44.80
2018-04-15T10:00:28.579Z,45.42
2018-04-15T10:02:56.663Z,45.23
2018-04-15T10:05:24.364Z,45.80
2018-04-15T10:07:52.215Z,43.80
2018-04-15T10:10:20.289Z,41.13
2018-04-15T10:12:47.959Z,45.30
2018-04-15T10:15:15.723Z,45.83
2018-04-15T10:17:43.381Z,44.80
2018-04-15T10:20:11.116Z,46.23
2018-04-15T10:22:38.760Z,40.67
2018-04-15T10:25:08.742Z,41.60
2018-04-15T10:27:37.085Z,42.70
2018-04-15T10:30:04.852Z,43.15
2018-04-15T10:32:32.519Z,42.15
2018-04-15T10:35:00.168Z,42.70
2018-04-15T10:37:29.571Z,39.83
2018-04-15T10:39:57.195Z,41.63
2018-04-15T10:42:25.044Z,41.45
2018-04-15T10:44:53.047Z,40.85
2018-04-15T10:47:20.723Z,39.25
2018-04-15T10:49:48.773Z,42.40
2018-04-15T10:52:17.433Z,40.15
2018-04-15T10:54:45.058Z,40.30
2018-04-15T10:57:12.735Z,38.70
2018-04-15T10:59:41.123Z,40.30
2018-04-15T11:02:08.767Z,41.10
2018-04-15T11:04:36.432Z,38.80
2018-04-15T11:07:04.052Z,39.35
2018-04-15T11:09:31.689Z,39.23
2018-04-15T11:11:59.362Z,39.80
2018-04-15T11:14:27.020Z,39.13
2018-04-15T11:16:54.688Z,40.10
2018-04-15T11:19:22.903Z,35.63
2018-04-15T11:21:51.309Z,36.63
2018-04-15T11:24:18.968Z,37.55
2018-04-15T11:26:46.585Z,41.13
2018-04-15T11:29:14.239Z,38.28
2018-04-15T11:31:42.408Z,37.03
2018-04-15T11:34:10.063Z,38.17
2018-04-15T11:36:37.828Z,36.77
2018-04-15T11:39:06.189Z,37.37
2018-04-15T11:41:35.502Z,39.83
2018-04-15T11:44:03.164Z,41.57
2018-04-15T11:46:30.824Z,39.73
2018-04-15T11:48:58.489Z,40.50
2018-04-15T11:51:26.483Z,38.00
2018-04-15T11:53:55.240Z,36.70
2018-04-15T11:56:22.877Z,34.33
2018-04-15T11:58:50.605Z,38.70
2018-04-15T12:01:18.297Z,37.63
2018-04-15T12:03:45.979Z,36.90
2018-04-15T12:06:13.740Z,35.73
2018-04-15T12:08:41.716Z,37.70
2018-04-15T12:11:10.669Z,38.90
2018-04-15T12:13:39.235Z,40.05
2018-04-15T12:16:06.908Z,37.90
2018-04-15T12:18:34.560Z,37.47
2018-04-15T12:21:02.220Z,36.53
2018-04-15T12:23:29.843Z,35.37
2018-04-15T12:25:58.095Z,38.20
2018-04-15T12:28:25.760Z,38.47
2018-04-15T12:30:53.977Z,38.30
2018-04-15T12:33:21.640Z,39.28
2018-04-15T12:35:49.352Z,38.10
2018-04-15T12:38:20.082Z,40.22
2018-04-15T12:40:47.911Z,41.33
2018-04-15T12:43:15.571Z,41.37
2018-04-15T12:45:43.191Z,42.10
2018-04-15T12:48:11.608Z,41.20
2018-04-15T12:50:39.956Z,38.75
2018-04-15T12:53:08.375Z,40.38
2018-04-15T12:55:36.073Z,37.78
2018-04-15T12:58:03.687Z,40.35
2018-04-15T13:00:31.352Z,37.50
2018-04-15T13:02:59.024Z,38.87
2018-04-15T13:05:26.974Z,39.70
2018-04-15T13:07:54.729Z,38.57
2018-04-15T13:10:23.905Z,41.80
2018-04-15T13:12:52.335Z,37.10
2018-04-15T13:15:20.967Z,38.33
2018-04-15T13:17:49.402Z,40.40
2018-04-15T13:20:17.318Z,38.30
2018-04-15T13:22:46.154Z,37.37
2018-04-15T13:25:14.011Z,38.25
2018-04-15T13:27:41.706Z,36.80
2018-04-15T13:30:10.111Z,38.63
2018-04-15T13:32:38.739Z,36.20
2018-04-15T13:35:06.997Z,40.40
2018-04-15T13:37:36.863Z,38.67
2018-04-15T13:40:04.793Z,37.45
2018-04-15T13:42:32.475Z,39.20
2018-04-15T13:45:00.099Z,38.33
2018-04-15T13:47:29.315Z,40.03
2018-04-15T13:49:57.256Z,39.60
2018-04-15T13:52:25.780Z,38.50
2018-04-15T13:54:55.833Z,41.25
2018-04-15T13:57:23.497Z,40.10
2018-04-15T13:59:51.459Z,38.53
2018-04-15T14:02:20.242Z,40.03
2018-04-15T14:04:48.176Z,40.73
2018-04-15T14:07:16.076Z,39.93
2018-04-15T14:09:44.705Z,41.93
2018-04-15T14:12:12.468Z,39.03
2018-04-15T14:14:42.371Z,42.37
2018-04-15T14:17:10.758Z,40.93
2018-04-15T14:19:41.209Z,41.05
2018-04-15T14:22:08.843Z,41.87
2018-04-15T14:24:36.727Z,43.10
2018-04-15T14:27:04.558Z,41.73
2018-04-15T14:29:32.214Z,38.30
2018-04-15T14:32:00.100Z,43.90
2018-04-15T14:34:27.752Z,37.37
2018-04-15T14:36:55.592Z,39.15
2018-04-15T14:39:23.215Z,40.33
2018-04-15T14:41:50.909Z,37.55
2018-04-15T14:44:18.540Z,40.00
2018-04-15T14:46:46.176Z,39.72
2018-04-15T14:49:14.051Z,40.27
2018-04-15T14:51:42.391Z,40.30
2018-04-15T14:54:10.013Z,39.15
2018-04-15T14:56:37.701Z,37.15
2018-04-15T14:59:05.376Z,40.40
2018-04-15T15:01:33.170Z,40.83
2018-04-15T15:04:00.796Z,37.00
2018-04-15T15:06:33.534Z,37.80
2018-04-15T15:09:06.395Z,42.10
2018-04-15T15:11:36.612Z,39.93
2018-04-15T15:14:07.305Z,39.20
2018-04-15T15:16:36.059Z,37.20
2018-04-15T15:19:04.711Z,39.27
2018-04-15T15:21:32.563Z,39.17
2018-04-15T15:24:00.224Z,38.60
2018-04-15T15:26:28.008Z,40.53
2018-04-15T15:28:58.135Z,39.40
2018-04-15T15:31:25.771Z,38.55
2018-04-15T15:33:53.434Z,41.50
2018-04-15T15:36:24.145Z,39.70
2018-04-15T15:38:52.127Z,38.47
2018-04-15T15:41:19.808Z,38.60
2018-04-15T15:43:47.434Z,41.05
2018-04-15T15:46:15.083Z,35.17
2018-04-15T15:48:43.431Z,36.83
2018-04-15T15:51:11.875Z,39.50
2018-04-15T15:53:39.530Z,37.50
2018-04-15T15:56:07.915Z,38.40
2018-04-15T15:58:35.549Z,38.00
2018-04-15T16:01:03.203Z,38.17
2018-04-15T16:03:30.982Z,38.90
2018-04-15T16:05:58.968Z,40.22
2018-04-15T16:08:26.945Z,37.58
2018-04-15T16:10:55.263Z,37.90
2018-04-15T16:13:22.981Z,39.40
2018-04-15T16:15:51.584Z,37.60
2018-04-15T16:18:20.512Z,37.13
2018-04-15T16:20:48.155Z,36.20
2018-04-15T16:23:16.157Z,37.87
2018-04-15T16:25:43.783Z,37.70
2018-04-15T16:28:12.878Z,36.03
2018-04-15T16:30:41.914Z,39.65
2018-04-15T16:33:09.551Z,38.03
2018-04-15T16:35:37.427Z,38.88
2018-04-15T16:38:05.440Z,39.38
2018-04-15T16:40:33.871Z,47.42
2018-04-15T16:43:03.263Z,41.47
2018-04-15T16:45:31.540Z,42.27
2018-04-15T16:47:59.961Z,39.47
2018-04-15T16:50:27.578Z,40.33
2018-04-15T16:52:55.394Z,41.47
2018-04-15T16:55:23.835Z,43.65
2018-04-15T16:57:52.833Z,42.17
2018-04-15T17:00:20.506Z,45.10
2018-04-15T17:02:48.350Z,44.60
2018-04-15T17:05:15.967Z,42.60
2018-04-15T17:07:43.783Z,40.00
2018-04-15T17:10:12.250Z,43.20
2018-04-15T17:12:40.754Z,43.77
2018-04-15T17:15:09.315Z,42.00
2018-04-15T17:17:36.934Z,36.17
2018-04-15T17:20:04.560Z,42.72
2018-04-15T17:22:32.227Z,41.27
2018-04-15T17:24:59.879Z,41.05
2018-04-15T17:27:27.570Z,43.27
2018-04-15T17:29:55.186Z,40.65
2018-04-15T17:32:23.039Z,40.20
2018-04-15T17:34:51.012Z,39.50
2018-04-15T17:37:18.899Z,43.87
2018-04-15T17:39:47.326Z,43.13
2018-04-15T17:42:14.940Z,42.58
2018-04-15T17:44:42.601Z,43.13
2018-04-15T17:47:10.258Z,40.53
2018-04-15T17:49:38.827Z,42.83
2018-04-15T17:52:06.449Z,41.58
2018-04-15T17:54:34.467Z,41.10
2018-04-15T17:57:02.867Z,40.60
2018-04-15T17:59:30.527Z,42.37
2018-04-15T18:01:58.964Z,40.23
2018-04-15T18:04:26.943Z,38.50
2018-04-15T18:06:54.560Z,41.67
2018-04-15T18:09:22.215Z,39.13
2018-04-15T18:11:49.831Z,41.00
2018-04-15T18:14:17.496Z,40.07
2018-04-15T18:16:45.919Z,39.73
2018-04-15T18:19:13.599Z,41.97
2018-04-15T18:21:41.307Z,40.87
2018-04-15T18:24:09.687Z,40.97
2018-04-15T18:26:38.108Z,46.75
2018-04-15T18:29:05.770Z,44.43
2018-04-15T18:31:33.546Z,43.47
2018-04-15T18:34:01.160Z,43.13
2018-04-15T18:36:28.816Z,41.80
2018-04-15T18:38:57.478Z,40.13
2018-04-15T18:41:25.144Z,41.60
2018-04-15T18:43:52.800Z,42.95
2018-04-15T18:46:20.641Z,42.33
2018-04-15T18:48:48.340Z,41.83
2018-04-15T18:51:15.996Z,41.20
2018-04-15T18:53:44.451Z,43.28
2018-04-15T18:56:12.075Z,42.80
2018-04-15T18:58:39.728Z,41.00
2018-04-15T19:01:07.385Z,45.00
2018-04-15T19:03:35.096Z,44.47
2018-04-15T19:06:02.863Z,45.47
2018-04-15T19:08:30.483Z,43.60
2018-04-15T19:10:58.148Z,43.47
2018-04-15T19:13:25.809Z,43.53
2018-04-15T19:15:53.431Z,44.57
2018-04-15T19:18:21.152Z,44.67
2018-04-15T19:20:48.791Z,45.53
2018-04-15T19:23:17.350Z,44.93
2018-04-15T19:25:47.446Z,42.20
2018-04-15T19:28:15.153Z,47.30
2018-04-15T19:30:42.814Z,49.97
2018-04-15T19:33:11.039Z,48.83
2018-04-15T19:35:39.479Z,42.80
2018-04-15T19:38:07.142Z,45.28
2018-04-15T19:40:34.779Z,44.90
2018-04-15T19:43:02.692Z,46.60
2018-04-15T19:45:30.344Z,48.37
2018-04-15T19:47:58.008Z,47.80
2018-04-15T19:50:25.671Z,49.20
2018-04-15T19:52:53.287Z,48.00
2018-04-15T19:55:20.954Z,51.47
2018-04-15T19:57:48.571Z,50.67
2018-04-15T20:00:16.999Z,53.28
2018-04-15T20:02:44.666Z,51.17
2018-04-15T20:05:12.267Z,51.37
2018-04-15T20:07:40.706Z,48.10
2018-04-15T20:10:08.383Z,48.37
2018-04-15T20:12:36.071Z,47.00
2018-04-15T20:15:03.696Z,48.70
2018-04-15T20:17:31.368Z,45.38
2018-04-15T20:19:58.987Z,50.53
2018-04-15T20:22:27.188Z,48.67
2018-04-15T20:24:54.848Z,48.57
2018-04-15T20:27:22.524Z,49.20
2018-04-15T20:29:50.138Z,45.42
2018-04-15T20:32:18.356Z,53.78
2018-04-15T20:34:46.016Z,51.90
2018-04-15T20:37:13.648Z,49.77
2018-04-15T20:39:41.279Z,49.00
2018-04-15T20:42:08.932Z,51.10
2018-04-15T20:44:36.596Z,54.47
2018-04-15T20:47:04.216Z,52.08
2018-04-15T20:49:31.967Z,48.20
2018-04-15T20:51:59.630Z,49.70
2018-04-15T20:54:27.252Z,65.30
2018-04-15T20:56:54.900Z,53.53
2018-04-15T20:59:22.576Z,53.85
2018-04-15T21:01:50.231Z,49.53
2018-04-15T21:04:17.883Z,49.77
2018-04-15T21:06:45.535Z,49.57
2018-04-15T21:09:13.196Z,46.87
2018-04-15T21:11:40.823Z,49.87
2018-04-15T21:14:08.879Z,52.97
2018-04-15T21:16:36.695Z,52.87
2018-04-15T21:19:04.315Z,56.63
2018-04-15T21:21:32.744Z,52.40
2018-04-15T21:24:00.375Z,52.10
2018-04-15T21:26:28.797Z,52.80
2018-04-15T21:28:56.428Z,62.83
2018-04-15T21:31:24.092Z,45.03
2018-04-15T21:33:51.752Z,40.97
2018-04-15T21:36:19.420Z,115.62
2018-04-15T21:38:47.047Z,101.07
2018-04-15T21:41:14.666Z,105.35
2018-04-15T21:43:42.323Z,42.50
2018-04-15T21:46:09.927Z,42.00
2018-04-15T21:48:38.348Z,49.67
2018-04-15T21:51:06.040Z,49.90
2018-04-15T21:53:33.692Z,49.20
2018-04-15T21:56:01.355Z,49.03
2018-04-15T21:58:29.008Z,47.20
2018-04-15T22:00:56.627Z,56.88
2018-04-15T22:03:24.278Z,53.00
2018-04-15T22:05:52.667Z,53.03
2018-04-15T22:08:20.319Z,52.33
2018-04-15T22:10:47.971Z,58.63
2018-04-15T22:13:15.813Z,54.00
2018-04-15T22:15:43.472Z,59.03
2018-04-15T22:18:13.391Z,97.88
2018-04-15T22:20:41.759Z,86.83
2018-04-15T22:23:09.411Z,87.80
2018-04-15T22:25:37.063Z,49.60
2018-04-15T22:28:04.678Z,48.80
2018-04-15T22:30:32.339Z,54.67
2018-04-15T22:32:59.972Z,58.85
2018-04-15T22:35:27.595Z,58.27
2018-04-15T22:37:55.287Z,53.30
2018-04-15T22:40:22.906Z,57.93
2018-04-15T22:42:51.153Z,54.35
2018-04-15T22:45:18.767Z,56.00
2018-04-15T22:47:52.008Z,63.50
2018-04-15T22:50:19.627Z,50.80
2018-04-15T22:52:47.284Z,57.72
2018-04-15T22:55:15.671Z,45.45
2018-04-15T22:57:44.103Z,34.55
2018-04-15T23:00:11.727Z,39.67
2018-04-15T23:02:40.116Z,35.05
2018-04-15T23:05:07.767Z,44.88
2018-04-15T23:07:35.388Z,43.85
2018-04-15T23:10:03.053Z,59.40
2018-04-15T23:12:30.903Z,66.23
2018-04-15T23:14:58.527Z,100.27
2018-04-15T23:17:26.194Z,50.28
2018-04-15T23:19:53.852Z,38.67
2018-04-15T23:22:21.480Z,41.47
2018-04-15T23:24:49.139Z,41.20
2018-04-15T23:27:17.785Z,47.70
2018-04-15T23:29:45.448Z,45.50
2018-04-15T23:32:13.104Z,55.07
2018-04-15T23:34:40.716Z,58.93
2018-04-15T23:37:09.688Z,45.17
2018-04-15T23:39:37.343Z,69.47
2018-04-15T23:42:05.004Z,51.53
2018-04-15T23:44:32.653Z,35.70
2018-04-15T23:47:00.320Z,35.37
2018-04-15T23:49:27.981Z,41.42
2018-04-15T23:51:55.595Z,42.47
2018-04-15T23:54:23.482Z,42.25
2018-04-15T23:56:55.852Z,42.00
2018-04-15T23:59:23.527Z,46.47
